createdAt,value
2022-08-05T00:01:28.594Z,6.55
2022-08-05T00:03:57.219Z,6.13
2022-08-05T00:06:32.137Z,6.60
2022-08-05T00:09:00.863Z,6.80
2022-08-05T00:11:34.469Z,6.20
2022-08-05T00:14:02.461Z,6.45
2022-08-05T00:16:53.106Z,5.80
2022-08-05T00:19:25.071Z,6.05
2022-08-05T00:22:00.969Z,5.65
2022-08-05T00:24:30.901Z,6.65
2022-08-05T00:26:58.819Z,5.80
2022-08-05T00:29:26.156Z,5.53
2022-08-05T00:32:12.362Z,5.75
2022-08-05T00:35:04.389Z,5.10
2022-08-05T00:37:50.794Z,4.55
2022-08-05T00:40:26.918Z,4.80
2022-08-05T00:42:57.038Z,4.72
2022-08-05T00:45:38.104Z,4.30
2022-08-05T00:48:09.604Z,4.38
2022-08-05T00:50:37.890Z,3.90
2022-08-05T00:53:09.910Z,3.40
2022-08-05T00:55:51.534Z,3.63
2022-08-05T00:58:19.134Z,2.97
2022-08-05T01:00:50.188Z,3.10
2022-08-05T01:03:22.507Z,3.20
2022-08-05T01:05:51.368Z,3.08
2022-08-05T01:08:39.225Z,2.58
2022-08-05T01:11:33.454Z,2.10
2022-08-05T01:14:04.143Z,2.70
2022-08-05T01:16:38.360Z,2.00
2022-08-05T01:19:56.886Z,2.40
2022-08-05T01:22:28.063Z,1.90
2022-08-05T01:25:21.541Z,2.50
2022-08-05T01:28:25.181Z,1.92
2022-08-05T01:30:56.957Z,1.73
2022-08-05T01:33:35.553Z,2.03
2022-08-05T01:36:12.833Z,2.13
2022-08-05T01:38:45.347Z,1.85
2022-08-05T01:41:14.868Z,1.98
2022-08-05T01:43:42.163Z,1.88
2022-08-05T01:46:16.316Z,2.03
2022-08-05T01:48:58.693Z,1.98
2022-08-05T01:51:29.994Z,3.85
2022-08-05T01:53:59.561Z,1.75
2022-08-05T01:58:10.299Z,1.50
2022-08-05T01:59:22.521Z,1.73
2022-08-05T02:01:54.708Z,1.95
2022-08-05T02:04:24.291Z,1.80
2022-08-05T02:06:52.678Z,1.92
2022-08-05T02:09:20.673Z,1.77
2022-08-05T02:12:12.498Z,1.80
2022-08-05T02:14:52.623Z,1.80
2022-08-05T02:18:28.745Z,1.83
2022-08-05T02:20:20.682Z,1.65
2022-08-05T02:22:56.731Z,1.63
2022-08-05T02:25:33.289Z,2.00
2022-08-05T02:28:02.403Z,1.92
2022-08-05T02:30:56.719Z,1.90
2022-08-05T02:33:35.762Z,1.73
2022-08-05T02:36:09.660Z,1.98
2022-08-05T02:38:43.666Z,1.83
2022-08-05T02:41:21.298Z,2.03
2022-08-05T02:44:02.694Z,1.70
2022-08-05T02:46:53.231Z,2.08
2022-08-05T02:49:36.831Z,1.80
2022-08-05T02:52:07.715Z,2.00
2022-08-05T02:54:37.419Z,2.03
2022-08-05T02:58:10.383Z,1.70
2022-08-05T02:59:59.378Z,1.90
2022-08-05T03:02:31.723Z,1.60
2022-08-05T03:04:59.822Z,1.70
2022-08-05T03:08:01.008Z,1.90
2022-08-05T03:10:15.897Z,1.90
2022-08-05T03:12:51.736Z,2.08
2022-08-05T03:15:20.117Z,2.10
2022-08-05T03:17:46.736Z,2.13
2022-08-05T03:20:13.963Z,2.33
2022-08-05T03:22:44.174Z,2.13
2022-08-05T03:25:33.788Z,2.00
2022-08-05T03:28:08.452Z,2.08
2022-08-05T03:30:36.797Z,1.88
2022-08-05T03:33:07.219Z,2.20
2022-08-05T03:35:41.012Z,2.20
2022-08-05T03:38:11.242Z,2.33
2022-08-05T03:40:47.462Z,1.88
2022-08-05T03:44:09.978Z,2.10
2022-08-05T03:46:04.642Z,2.47
2022-08-05T03:48:35.654Z,2.22
2022-08-05T03:52:37.709Z,2.47
2022-08-05T03:55:50.508Z,2.20
2022-08-05T03:56:47.790Z,2.38
2022-08-05T03:59:47.663Z,2.50
2022-08-05T04:02:37.506Z,2.35
2022-08-05T04:05:09.576Z,2.60
2022-08-05T04:07:57.097Z,2.45
2022-08-05T04:10:27.893Z,2.72
2022-08-05T04:12:58.774Z,2.08
2022-08-05T04:15:27.995Z,2.38
2022-08-05T04:18:06.816Z,2.35
2022-08-05T04:20:34.836Z,2.47
2022-08-05T04:23:01.722Z,2.45
2022-08-05T04:25:56.789Z,2.30
2022-08-05T04:28:15.150Z,2.30
2022-08-05T04:30:44.624Z,2.40
2022-08-05T04:33:12.591Z,2.58
2022-08-05T04:36:15.581Z,2.33
2022-08-05T04:38:40.023Z,2.60
2022-08-05T04:44:02.171Z,2.35
2022-08-05T04:46:37.099Z,2.50
2022-08-05T04:49:12.364Z,2.35
2022-08-05T04:51:42.939Z,2.58
2022-08-05T04:54:10.342Z,2.72
2022-08-05T04:56:39.180Z,2.60
2022-08-05T04:59:22.373Z,2.38
2022-08-05T05:02:34.889Z,2.80
2022-08-05T05:04:47.776Z,2.13
2022-08-05T05:07:17.735Z,3.00
2022-08-05T05:09:45.635Z,2.63
2022-08-05T05:12:12.333Z,2.80
2022-08-05T05:14:49.278Z,2.75
2022-08-05T05:17:23.358Z,2.83
2022-08-05T05:19:54.194Z,2.53
2022-08-05T05:22:24.239Z,2.22
2022-08-05T05:24:57.012Z,2.17
2022-08-05T05:27:45.041Z,2.45
2022-08-05T05:30:29.123Z,2.72
2022-08-05T05:33:00.710Z,2.67
2022-08-05T05:35:34.169Z,3.15
2022-08-05T05:38:09.471Z,2.58
2022-08-05T05:40:48.042Z,2.85
2022-08-05T05:43:28.144Z,3.15
2022-08-05T05:46:03.832Z,2.70
2022-08-05T05:48:34.634Z,2.78
2022-08-05T05:51:15.035Z,2.33
2022-08-05T05:53:54.026Z,2.50
2022-08-05T05:56:26.154Z,2.95
2022-08-05T05:59:03.188Z,2.90
2022-08-05T06:01:37.551Z,2.67
2022-08-05T06:04:11.938Z,3.30
2022-08-05T06:06:47.689Z,2.90
2022-08-05T06:09:24.757Z,3.20
2022-08-05T06:12:01.491Z,2.95
2022-08-05T06:14:30.733Z,3.13
2022-08-05T06:16:58.422Z,2.72
2022-08-05T06:19:34.811Z,3.28
2022-08-05T06:22:07.210Z,3.20
2022-08-05T06:24:35.010Z,3.05
2022-08-05T06:27:03.925Z,2.80
2022-08-05T06:29:49.556Z,3.45
2022-08-05T06:32:25.493Z,3.33
2022-08-05T06:34:56.187Z,3.28
2022-08-05T06:37:58.159Z,3.58
2022-08-05T06:40:18.225Z,3.42
2022-08-05T06:42:48.594Z,3.28
2022-08-05T06:45:20.715Z,3.08
2022-08-05T06:48:36.928Z,3.30
2022-08-05T06:50:35.746Z,3.60
2022-08-05T06:53:11.251Z,3.00
2022-08-05T06:55:38.576Z,3.33
2022-08-05T06:58:19.989Z,3.30
2022-08-05T07:01:00.298Z,3.25
2022-08-05T07:03:32.336Z,3.30
2022-08-05T07:06:05.992Z,2.97
2022-08-05T07:08:47.742Z,2.92
2022-08-05T07:11:15.967Z,2.97
2022-08-05T07:14:02.402Z,2.70
2022-08-05T07:17:56.227Z,3.03
2022-08-05T07:22:28.291Z,3.45
2022-08-05T07:25:22.594Z,3.42
2022-08-05T07:27:57.949Z,2.88
2022-08-05T07:30:38.912Z,3.22
2022-08-05T07:33:15.715Z,3.08
2022-08-05T07:36:03.736Z,2.88
2022-08-05T07:38:35.373Z,3.33
2022-08-05T07:42:07.807Z,2.92
2022-08-05T07:44:18.766Z,3.25
2022-08-05T07:46:48.650Z,2.88
2022-08-05T07:49:18.175Z,3.20
2022-08-05T07:51:53.441Z,2.83
2022-08-05T07:54:31.190Z,2.78
2022-08-05T07:57:22.640Z,2.90
2022-08-05T07:59:52.002Z,3.00
2022-08-05T08:02:26.372Z,2.95
2022-08-05T08:04:54.477Z,3.03
2022-08-05T08:07:23.085Z,2.90
2022-08-05T08:09:53.115Z,2.78
2022-08-05T08:12:37.283Z,2.80
2022-08-05T08:15:15.178Z,3.08
2022-08-05T08:17:46.295Z,3.17
2022-08-05T08:21:00.206Z,3.03
2022-08-05T08:24:03.269Z,3.22
2022-08-05T08:25:59.087Z,2.90
2022-08-05T08:28:36.103Z,3.08
2022-08-05T08:31:09.592Z,3.03
2022-08-05T08:33:41.848Z,3.47
2022-08-05T08:36:37.625Z,3.17
2022-08-05T08:38:57.455Z,3.78
2022-08-05T08:41:51.382Z,3.70
2022-08-05T08:45:18.256Z,3.08
2022-08-05T08:47:46.811Z,3.30
2022-08-05T08:50:14.291Z,3.17
2022-08-05T08:52:51.651Z,3.10
2022-08-05T08:56:01.979Z,3.17
2022-08-05T08:58:07.292Z,2.78
2022-08-05T09:00:36.818Z,3.10
2022-08-05T09:03:06.724Z,3.10
2022-08-05T09:05:38.826Z,2.80
2022-08-05T09:08:20.356Z,3.50
2022-08-05T09:10:54.321Z,3.15
2022-08-05T09:13:21.392Z,3.00
2022-08-05T09:15:51.309Z,3.20
2022-08-05T09:18:18.482Z,2.88
2022-08-05T09:20:47.185Z,2.80
2022-08-05T09:23:18.967Z,2.78
2022-08-05T09:26:02.229Z,2.95
2022-08-05T09:28:33.387Z,3.00
2022-08-05T09:31:23.330Z,2.85
2022-08-05T09:34:07.389Z,3.00
2022-08-05T09:36:56.412Z,2.70
2022-08-05T09:39:39.495Z,3.03
2022-08-05T09:42:23.969Z,2.30
2022-08-05T09:44:57.217Z,2.38
2022-08-05T09:47:49.046Z,2.88
2022-08-05T09:50:37.781Z,2.47
2022-08-05T09:53:05.798Z,2.45
2022-08-05T09:55:56.818Z,2.40
2022-08-05T09:58:23.842Z,2.20
2022-08-05T10:00:58.434Z,2.53
2022-08-05T10:03:25.778Z,2.58
2022-08-05T10:06:15.597Z,2.40
2022-08-05T10:08:43.027Z,2.17
2022-08-05T10:11:17.612Z,2.15
2022-08-05T10:13:48.452Z,2.20
2022-08-05T10:16:31.016Z,2.30
2022-08-05T10:18:59.983Z,1.90
2022-08-05T10:21:27.602Z,2.20
2022-08-05T10:24:06.251Z,2.03
2022-08-05T10:26:37.676Z,2.28
2022-08-05T10:29:23.549Z,1.83
2022-08-05T10:33:02.199Z,1.90
2022-08-05T10:34:40.859Z,1.80
2022-08-05T10:37:08.335Z,1.63
2022-08-05T10:40:04.119Z,2.17
2022-08-05T10:42:33.911Z,1.75
2022-08-05T10:45:02.002Z,1.67
2022-08-05T10:48:29.751Z,1.60
2022-08-05T10:51:03.305Z,1.60
2022-08-05T10:53:42.639Z,1.50
2022-08-05T10:56:25.458Z,1.55
2022-08-05T10:58:55.716Z,2.17
2022-08-05T11:01:55.067Z,1.60
2022-08-05T11:04:26.247Z,1.70
2022-08-05T11:07:04.752Z,2.40
2022-08-05T11:09:48.835Z,2.00
2022-08-05T11:12:45.347Z,1.70
2022-08-05T11:15:21.989Z,2.13
2022-08-05T11:17:59.924Z,1.50
2022-08-05T11:20:39.168Z,1.90
2022-08-05T11:23:33.589Z,1.70
2022-08-05T11:26:28.858Z,1.77
2022-08-05T11:29:06.612Z,2.50
2022-08-05T11:31:58.825Z,2.70
2022-08-05T11:34:51.102Z,2.08
2022-08-05T11:38:28.625Z,2.35
2022-08-05T11:41:34.444Z,2.00
2022-08-05T11:44:10.810Z,1.83
2022-08-05T11:46:58.594Z,2.00
2022-08-05T11:49:34.034Z,2.58
2022-08-05T11:52:01.573Z,2.40
2022-08-05T11:54:38.184Z,2.05
2022-08-05T11:57:25.230Z,1.73
2022-08-05T11:59:53.241Z,1.65
2022-08-05T12:02:31.881Z,1.88
2022-08-05T12:05:08.248Z,1.30
2022-08-05T12:08:09.492Z,1.80
2022-08-05T12:10:43.178Z,1.52
2022-08-05T12:13:28.152Z,1.73
2022-08-05T12:16:15.380Z,1.50
2022-08-05T12:18:49.593Z,1.75
2022-08-05T12:21:26.737Z,1.20
2022-08-05T12:24:06.984Z,1.30
2022-08-05T12:27:01.160Z,1.20
2022-08-05T12:29:38.815Z,1.13
2022-08-05T12:32:07.529Z,1.35
2022-08-05T12:34:38.410Z,1.10
2022-08-05T12:37:26.680Z,1.15
2022-08-05T12:40:03.626Z,1.13
2022-08-05T12:42:37.779Z,1.25
2022-08-05T12:45:09.428Z,1.33
2022-08-05T12:47:37.862Z,0.95
2022-08-05T12:50:17.322Z,1.00
2022-08-05T12:52:59.596Z,1.00
2022-08-05T12:55:32.951Z,0.95
2022-08-05T12:58:51.343Z,1.20
2022-08-05T13:02:03.140Z,1.10
2022-08-05T13:03:42.092Z,1.10
2022-08-05T13:06:17.280Z,1.00
2022-08-05T13:08:52.354Z,1.33
2022-08-05T13:12:02.352Z,1.10
2022-08-05T13:14:24.857Z,1.00
2022-08-05T13:17:07.037Z,1.40
2022-08-05T13:19:52.433Z,1.20
2022-08-05T13:22:28.522Z,1.13
2022-08-05T13:25:00.631Z,1.20
2022-08-05T13:27:38.892Z,1.25
2022-08-05T13:30:35.274Z,1.05
2022-08-05T13:32:56.400Z,0.90
2022-08-05T13:35:31.382Z,0.98
2022-08-05T13:38:14.554Z,1.10
2022-08-05T13:40:55.266Z,1.02
2022-08-05T13:43:22.466Z,1.08
2022-08-05T13:45:49.288Z,1.10
2022-08-05T13:48:58.484Z,1.17
2022-08-05T13:51:09.635Z,0.93
2022-08-05T13:53:47.819Z,1.10
2022-08-05T13:56:19.132Z,1.10
2022-08-05T13:58:53.456Z,1.08
2022-08-05T14:01:25.878Z,0.90
2022-08-05T14:04:22.128Z,1.10
2022-08-05T14:06:58.748Z,0.80
2022-08-05T14:09:45.954Z,0.82
2022-08-05T14:12:17.596Z,1.00
2022-08-05T14:14:45.234Z,0.80
2022-08-05T14:17:16.816Z,0.80
2022-08-05T14:19:54.579Z,1.00
2022-08-05T14:22:24.898Z,1.00
2022-08-05T14:24:57.182Z,1.00
2022-08-05T14:27:23.821Z,0.90
2022-08-05T14:29:55.570Z,1.05
2022-08-05T14:32:26.669Z,1.10
2022-08-05T14:34:54.710Z,1.10
2022-08-05T14:37:45.664Z,0.80
2022-08-05T14:40:14.190Z,0.90
2022-08-05T14:42:43.840Z,1.10
2022-08-05T14:45:10.760Z,1.10
2022-08-05T14:48:03.602Z,1.55
2022-08-05T14:50:25.223Z,1.20
2022-08-05T14:52:57.495Z,1.02
2022-08-05T14:55:38.648Z,1.20
2022-08-05T14:58:12.046Z,1.13
2022-08-05T15:00:59.150Z,1.27
2022-08-05T15:03:33.080Z,1.25
2022-08-05T15:06:07.783Z,1.10
2022-08-05T15:08:59.375Z,1.20
2022-08-05T15:11:52.283Z,1.17
2022-08-05T15:14:34.234Z,1.10
2022-08-05T15:17:03.759Z,1.30
2022-08-05T15:19:31.501Z,1.30
2022-08-05T15:22:01.036Z,1.20
2022-08-05T15:24:28.663Z,1.20
2022-08-05T15:26:56.079Z,1.10
2022-08-05T15:29:30.182Z,1.45
2022-08-05T15:32:03.277Z,1.17
2022-08-05T15:34:33.379Z,1.20
2022-08-05T15:37:06.156Z,1.50
2022-08-05T15:40:59.590Z,1.38
2022-08-05T15:42:28.651Z,1.25
2022-08-05T15:45:07.180Z,1.73
2022-08-05T15:47:36.765Z,1.35
2022-08-05T15:50:07.317Z,1.33
2022-08-05T15:52:52.724Z,1.50
2022-08-05T15:55:25.021Z,1.55
2022-08-05T15:58:08.911Z,1.80
2022-08-05T16:01:03.603Z,1.35
2022-08-05T16:03:22.255Z,1.23
2022-08-05T16:05:52.640Z,1.10
2022-08-05T16:08:22.426Z,1.13
2022-08-05T16:10:50.746Z,1.15
2022-08-05T16:13:23.347Z,1.00
2022-08-05T16:15:51.928Z,1.02
2022-08-05T16:18:19.263Z,1.20
2022-08-05T16:20:46.374Z,1.08
2022-08-05T16:23:13.227Z,1.17
2022-08-05T16:25:40.185Z,1.20
2022-08-05T16:28:09.819Z,0.90
2022-08-05T16:30:37.796Z,1.20
2022-08-05T16:33:04.589Z,1.00
2022-08-05T16:35:32.598Z,1.10
2022-08-05T16:38:18.439Z,0.88
2022-08-05T16:40:55.317Z,1.20
2022-08-05T16:43:23.763Z,1.00
2022-08-05T16:46:06.487Z,1.15
2022-08-05T16:48:39.182Z,0.97
2022-08-05T16:51:09.976Z,1.10
2022-08-05T16:54:06.230Z,1.00
2022-08-05T16:56:29.933Z,0.93
2022-08-05T16:58:57.832Z,0.80
2022-08-05T17:01:24.745Z,0.98
2022-08-05T17:03:52.008Z,0.90
2022-08-05T17:06:19.357Z,0.90
2022-08-05T17:08:52.854Z,0.80
2022-08-05T17:11:25.527Z,0.80
2022-08-05T17:14:00.412Z,1.00
2022-08-05T17:16:36.547Z,0.90
2022-08-05T17:19:07.737Z,0.70
2022-08-05T17:21:37.687Z,0.68
2022-08-05T17:24:28.461Z,0.68
2022-08-05T17:26:57.006Z,0.68
2022-08-05T17:29:33.313Z,0.70
2022-08-05T17:32:01.050Z,0.80
2022-08-05T17:34:29.853Z,0.88
2022-08-05T17:37:00.110Z,1.00
2022-08-05T17:39:34.252Z,0.82
2022-08-05T17:42:18.348Z,0.60
2022-08-05T17:44:51.120Z,0.60
2022-08-05T17:47:23.121Z,0.60
2022-08-05T17:50:04.036Z,0.60
2022-08-05T17:52:52.733Z,0.40
2022-08-05T17:55:22.403Z,0.73
2022-08-05T17:57:50.156Z,0.60
2022-08-05T18:00:17.508Z,0.70
2022-08-05T18:02:47.292Z,0.60
2022-08-05T18:05:16.770Z,0.50
2022-08-05T18:07:44.622Z,0.65
2022-08-05T18:10:20.308Z,0.60
2022-08-05T18:12:48.824Z,0.65
2022-08-05T18:15:15.469Z,0.47
2022-08-05T18:17:58.634Z,0.60
2022-08-05T18:20:31.517Z,0.57
2022-08-05T18:23:11.369Z,0.60
2022-08-05T18:25:45.380Z,0.50
2022-08-05T18:28:16.045Z,0.70
2022-08-05T18:30:50.750Z,0.50
2022-08-05T18:33:22.614Z,0.50
2022-08-05T18:36:01.117Z,0.45
2022-08-05T18:38:36.037Z,0.60
2022-08-05T18:41:56.462Z,0.50
2022-08-05T18:43:54.201Z,0.60
2022-08-05T18:46:20.922Z,0.50
2022-08-05T18:48:51.965Z,0.55
2022-08-05T18:52:04.972Z,0.68
2022-08-05T18:54:31.372Z,0.50
2022-08-05T18:57:02.461Z,0.45
2022-08-05T18:59:42.874Z,0.63
2022-08-05T19:02:27.857Z,0.70
2022-08-05T19:05:02.862Z,0.47
2022-08-05T19:07:46.331Z,0.63
2022-08-05T19:10:14.448Z,1.00
2022-08-05T19:12:41.474Z,0.50
2022-08-05T19:15:25.245Z,0.40
2022-08-05T19:18:09.074Z,0.50
2022-08-05T19:20:41.526Z,0.40
2022-08-05T19:24:04.047Z,0.50
2022-08-05T19:26:01.890Z,0.50
2022-08-05T19:28:34.739Z,0.60
2022-08-05T19:31:05.724Z,0.52
2022-08-05T19:33:36.839Z,0.60
2022-08-05T19:36:09.073Z,0.40
2022-08-05T19:38:36.286Z,0.50
2022-08-05T19:41:07.016Z,0.52
2022-08-05T19:44:06.729Z,0.60
2022-08-05T19:46:29.310Z,0.50
2022-08-05T19:49:03.588Z,0.60
2022-08-05T19:52:08.607Z,0.50
2022-08-05T19:54:29.568Z,0.43
2022-08-05T19:56:59.765Z,0.63
2022-08-05T19:59:54.949Z,0.60
2022-08-05T20:02:17.632Z,0.50
2022-08-05T20:04:46.065Z,0.50
2022-08-05T20:07:15.036Z,0.47
2022-08-05T20:09:55.152Z,0.47
2022-08-05T20:12:24.799Z,0.50
2022-08-05T20:14:53.330Z,0.50
2022-08-05T20:17:23.232Z,0.57
2022-08-05T20:19:56.915Z,0.55
2022-08-05T20:22:27.214Z,0.60
2022-08-05T20:24:55.498Z,0.70
2022-08-05T20:27:27.039Z,0.70
2022-08-05T20:29:58.210Z,0.60
2022-08-05T20:32:27.551Z,0.60
2022-08-05T20:34:54.609Z,0.85
2022-08-05T20:38:06.431Z,0.90
2022-08-05T20:40:08.900Z,1.15
2022-08-05T20:42:35.674Z,0.70
2022-08-05T20:45:02.889Z,0.70
2022-08-05T20:47:31.851Z,0.90
2022-08-05T20:50:02.056Z,0.60
2022-08-05T20:52:29.426Z,0.55
2022-08-05T20:55:55.623Z,0.70
2022-08-05T20:57:44.812Z,0.60
2022-08-05T21:00:40.325Z,0.65
2022-08-05T21:03:06.843Z,0.60
2022-08-05T21:05:48.279Z,0.68
2022-08-05T21:08:21.362Z,0.70
2022-08-05T21:10:55.078Z,0.85
2022-08-05T21:13:26.551Z,0.75
2022-08-05T21:16:11.971Z,1.00
2022-08-05T21:18:38.615Z,1.00
2022-08-05T21:21:12.094Z,0.77
2022-08-05T21:23:39.028Z,0.70
2022-08-05T21:26:08.358Z,0.82
2022-08-05T21:28:47.877Z,0.75
2022-08-05T21:31:18.878Z,0.70
2022-08-05T21:33:47.546Z,0.90
2022-08-05T21:36:19.117Z,0.80
2022-08-05T21:38:54.862Z,0.80
2022-08-05T21:41:21.613Z,0.70
2022-08-05T21:44:01.659Z,0.70
2022-08-05T21:46:30.546Z,0.85
2022-08-05T21:48:57.243Z,0.80
2022-08-05T21:52:21.652Z,0.80
2022-08-05T21:54:13.391Z,0.80
2022-08-05T21:56:44.735Z,0.90
2022-08-05T21:59:24.014Z,0.93
2022-08-05T22:01:54.443Z,0.80
2022-08-05T22:04:25.247Z,0.70
2022-08-05T22:06:52.700Z,0.85
2022-08-05T22:09:21.463Z,0.82
2022-08-05T22:11:48.731Z,0.65
2022-08-05T22:14:35.755Z,0.70
2022-08-05T22:17:06.648Z,0.60
2022-08-05T22:20:01.193Z,1.02
2022-08-05T22:22:28.233Z,1.02
2022-08-05T22:25:27.821Z,1.05
2022-08-05T22:28:10.474Z,0.93
2022-08-05T22:30:55.272Z,0.98
2022-08-05T22:33:57.913Z,0.90
2022-08-05T22:36:15.571Z,0.90
2022-08-05T22:38:48.276Z,1.10
2022-08-05T22:42:10.115Z,1.00
2022-08-05T22:45:05.559Z,0.70
2022-08-05T22:49:07.477Z,0.88
2022-08-05T22:55:57.199Z,0.82
2022-08-05T23:14:44.064Z,0.80
2022-08-05T23:24:53.722Z,0.70
2022-08-05T23:28:06.875Z,0.80
2022-08-05T23:38:21.554Z,1.00
2022-08-05T23:44:45.757Z,1.10
